Time;durP1;ratioP1;P1;durP2;ratioP2;P2;SDS_P1;SDS_P2;PMS_P1;PMS_P2;Temp;Humidity;BMP_temperature;BMP_pressure;BME280_temperature;BME280_humidity;BME280_pressure;Samples;Min_cycle;Max_cycle;Signal;HPM_P1;HPM_P2
2023/09/04 00:01:38;;;;;;;9.80;7.78;;;14.30;99.90;;;;;;5073699;28;20489;-76
2023/09/04 00:04:05;;;;;;;10.00;7.68;;;14.30;99.90;;;;;;5073863;28;20379;-76
2023/09/04 00:06:31;;;;;;;9.82;7.35;;;14.30;99.90;;;;;;5073684;28;20376;-77
2023/09/04 00:08:59;;;;;;;12.80;7.70;;;14.30;99.90;;;;;;5073992;28;20390;-75
2023/09/04 00:11:26;;;;;;;8.90;7.80;;;14.30;99.90;;;;;;5073278;28;20411;-76
2023/09/04 00:13:52;;;;;;;12.70;8.10;;;14.30;99.90;;;;;;5073488;28;20387;-77
2023/09/04 00:16:18;;;;;;;11.50;7.60;;;14.20;99.90;;;;;;5055718;28;20402;-78
2023/09/04 00:18:44;;;;;;;9.47;7.27;;;14.10;99.90;;;;;;5072931;28;21045;-77
2023/09/04 00:21:09;;;;;;;10.95;7.50;;;14.10;99.90;;;;;;5073074;28;20390;-77
2023/09/04 00:23:35;;;;;;;10.45;7.13;;;14.00;99.90;;;;;;5072874;28;20460;-77
2023/09/04 00:26:00;;;;;;;10.88;7.72;;;14.10;99.90;;;;;;5073072;28;20383;-77
2023/09/04 00:28:26;;;;;;;10.47;7.40;;;14.00;99.90;;;;;;5072967;28;20965;-77
2023/09/04 00:30:52;;;;;;;10.13;6.83;;;13.90;99.90;;;;;;5072794;28;20470;-77
2023/09/04 00:33:17;;;;;;;11.48;7.80;;;13.90;99.90;;;;;;5072966;28;20470;-77
2023/09/04 00:35:43;;;;;;;9.52;8.52;;;13.90;99.90;;;;;;5073083;28;20387;-75
2023/09/04 00:38:09;;;;;;;9.98;7.38;;;14.00;99.90;;;;;;5072774;28;20412;-77
2023/09/04 00:40:34;;;;;;;9.15;7.30;;;14.30;99.90;;;;;;5072702;28;20383;-77
2023/09/04 00:43:00;;;;;;;10.50;7.50;;;14.30;99.90;;;;;;5072697;28;20748;-77
2023/09/04 00:45:26;;;;;;;8.63;6.60;;;14.10;99.90;;;;;;5054810;28;20750;-76
2023/09/04 00:47:51;;;;;;;11.93;7.32;;;14.10;99.90;;;;;;5072928;28;20379;-76
2023/09/04 00:50:23;;;;;;;9.38;7.10;;;14.00;99.90;;;;;;5072722;28;20387;-76
2023/09/04 00:52:52;;;;;;;9.18;7.50;;;13.90;99.90;;;;;;5072910;28;20551;-77
2023/09/04 00:55:18;;;;;;;8.57;7.30;;;13.80;99.90;;;;;;5073976;28;20857;-77
2023/09/04 00:57:44;;;;;;;9.88;7.50;;;13.80;99.90;;;;;;5055572;28;20418;-77
2023/09/04 01:00:13;;;;;;;11.27;8.00;;;13.90;99.90;;;;;;5072764;28;20424;-77
2023/09/04 01:02:40;;;;;;;9.07;7.25;;;13.80;99.90;;;;;;5072369;28;20384;-75
2023/09/04 01:05:06;;;;;;;11.10;7.60;;;13.80;99.90;;;;;;5072122;28;20748;-76
2023/09/04 01:07:32;;;;;;;11.07;8.00;;;13.70;99.90;;;;;;5072026;28;20406;-75
2023/09/04 01:09:59;;;;;;;12.88;8.40;;;13.70;99.90;;;;;;5072138;28;20419;-75
2023/09/04 01:12:51;;;;;;;13.10;8.30;;;13.70;99.90;;;;;;5071940;28;20803;-76
2023/09/04 01:15:17;;;;;;;11.18;8.48;;;13.70;99.90;;;;;;5061042;28;20392;-76
2023/09/04 01:17:44;;;;;;;9.13;8.18;;;13.80;99.90;;;;;;5055330;28;20911;-76
2023/09/04 01:20:22;;;;;;;8.70;7.80;;;13.80;99.90;;;;;;5076672;28;20372;-76
2023/09/04 01:22:48;;;;;;;9.95;7.70;;;13.80;99.90;;;;;;5072043;28;20372;-76
2023/09/04 01:25:15;;;;;;;11.77;8.67;;;13.80;99.90;;;;;;5054205;28;20388;-77
2023/09/04 01:28:00;;;;;;;10.98;8.32;;;13.80;99.90;;;;;;5071916;28;20376;-75
2023/09/04 01:30:55;;;;;;;11.13;8.50;;;13.80;99.90;;;;;;5053941;28;20384;-76
2023/09/04 01:33:27;;;;;;;10.97;8.63;;;13.80;99.90;;;;;;5071641;28;20376;-75
2023/09/04 01:35:54;;;;;;;15.40;8.25;;;13.80;99.90;;;;;;5053686;28;20384;-76
2023/09/04 01:38:20;;;;;;;12.65;8.70;;;13.90;99.90;;;;;;5071550;28;20908;-76
2023/09/04 01:40:50;;;;;;;9.60;8.10;;;13.80;99.90;;;;;;5071718;28;20445;-76
2023/09/04 01:43:16;;;;;;;10.55;7.97;;;13.80;99.90;;;;;;5071724;28;20441;-76
2023/09/04 01:45:41;;;;;;;11.17;7.80;;;13.80;99.90;;;;;;5074053;28;20388;-76
2023/09/04 01:48:07;;;;;;;8.67;7.30;;;13.80;99.90;;;;;;5074291;28;20471;-76
2023/09/04 01:50:33;;;;;;;9.73;7.97;;;13.80;99.90;;;;;;5078602;28;20391;-74
2023/09/04 01:52:59;;;;;;;10.87;7.97;;;13.80;99.90;;;;;;5084621;28;20507;-77
2023/09/04 01:55:25;;;;;;;10.30;7.50;;;13.80;99.90;;;;;;5074201;28;20459;-75
2023/09/04 01:57:50;;;;;;;9.93;7.90;;;13.80;99.90;;;;;;5054208;28;20387;-76
2023/09/04 02:00:16;;;;;;;10.30;7.70;;;13.80;99.90;;;;;;5071485;28;20481;-76
2023/09/04 02:02:41;;;;;;;10.73;7.10;;;13.80;99.90;;;;;;5071172;28;20392;-76
2023/09/04 02:05:07;;;;;;;10.85;6.90;;;13.90;99.90;;;;;;5072195;28;20376;-76
2023/09/04 02:07:33;;;;;;;7.60;6.80;;;14.00;99.90;;;;;;5075259;28;20923;-76
2023/09/04 02:09:58;;;;;;;9.23;7.17;;;14.30;99.00;;;;;;5057652;28;20392;-76
2023/09/04 02:12:24;;;;;;;9.73;6.80;;;14.40;98.10;;;;;;5072706;28;20410;-76
2023/09/04 02:14:52;;;;;;;10.13;7.18;;;14.60;93.40;;;;;;5055078;28;20379;-76
2023/09/04 02:17:17;;;;;;;8.65;6.70;;;14.70;91.20;;;;;;5070883;28;20390;-76
2023/09/04 02:19:43;;;;;;;11.25;7.30;;;14.80;89.40;;;;;;5070480;28;20403;-76
2023/09/04 02:22:08;;;;;;;11.10;7.33;;;14.80;88.10;;;;;;5070483;28;20379;-76
2023/09/04 02:24:34;;;;;;;11.07;7.40;;;14.70;87.20;;;;;;5070698;28;20375;-76
2023/09/04 02:26:59;;;;;;;11.85;7.15;;;14.70;89.00;;;;;;5070837;28;20380;-76
2023/09/04 02:29:25;;;;;;;9.45;7.05;;;14.60;89.60;;;;;;5070508;28;20617;-76
2023/09/04 02:31:50;;;;;;;8.30;7.20;;;14.60;90.60;;;;;;5071468;28;20475;-75
2023/09/04 02:34:16;;;;;;;9.10;7.80;;;14.50;91.30;;;;;;5070460;28;20410;-76
2023/09/04 02:36:42;;;;;;;10.93;7.80;;;14.30;95.00;;;;;;5070473;28;20890;-76
2023/09/04 02:39:07;;;;;;;11.15;7.70;;;14.30;95.80;;;;;;5070306;28;20816;-76
2023/09/04 02:41:33;;;;;;;14.10;7.90;;;14.40;94.80;;;;;;5071092;28;20454;-75
2023/09/04 02:43:58;;;;;;;12.83;8.33;;;14.50;92.90;;;;;;5070746;28;20376;-76
2023/09/04 02:46:24;;;;;;;10.73;7.57;;;14.50;91.60;;;;;;5078030;28;20425;-75
2023/09/04 02:48:50;;;;;;;8.70;7.80;;;14.60;90.10;;;;;;5072690;28;20930;-76
2023/09/04 02:51:15;;;;;;;8.57;7.35;;;14.60;89.60;;;;;;5070220;28;20783;-75
2023/09/04 02:53:41;;;;;;;11.88;8.27;;;14.50;89.40;;;;;;5070442;28;20880;-75
2023/09/04 02:56:06;;;;;;;10.90;8.25;;;14.20;93.80;;;;;;5070264;28;20870;-75
2023/09/04 02:58:32;;;;;;;10.30;8.00;;;14.10;97.80;;;;;;5070317;28;20448;-76
2023/09/04 03:00:57;;;;;;;9.23;7.80;;;14.10;98.80;;;;;;5084540;22;20785;-76
2023/09/04 03:03:24;;;;;;;12.38;8.40;;;13.90;99.90;;;;;;5070630;28;20763;-76
2023/09/04 03:05:49;;;;;;;11.90;8.60;;;14.00;99.90;;;;;;5069994;28;20396;-75
2023/09/04 03:08:15;;;;;;;13.20;7.70;;;14.00;99.90;;;;;;5070271;28;20384;-76
2023/09/04 03:10:40;;;;;;;12.73;8.00;;;14.10;97.20;;;;;;5069719;28;20392;-74
2023/09/04 03:13:06;;;;;;;10.80;8.15;;;14.30;92.80;;;;;;5069529;28;20877;-74
2023/09/04 03:15:31;;;;;;;12.50;8.97;;;14.20;92.80;;;;;;5070728;28;20391;-74
2023/09/04 03:17:57;;;;;;;11.73;8.23;;;14.10;93.90;;;;;;5069946;28;20395;-74
2023/09/04 03:20:23;;;;;;;12.57;8.70;;;14.00;95.50;;;;;;5070222;28;20921;-74
2023/09/04 03:22:48;;;;;;;9.98;8.40;;;13.90;97.40;;;;;;5070922;28;20732;-76
2023/09/04 03:25:14;;;;;;;10.00;8.40;;;13.70;99.90;;;;;;5074729;28;20394;-76
2023/09/04 03:27:40;;;;;;;11.73;8.15;;;13.80;99.90;;;;;;5074045;28;20760;-75
2023/09/04 03:30:06;;;;;;;14.60;8.90;;;14.00;99.70;;;;;;5056083;28;20395;-74
2023/09/04 03:32:31;;;;;;;10.40;8.70;;;13.90;95.90;;;;;;5073600;28;20898;-74
2023/09/04 03:34:57;;;;;;;11.80;8.33;;;13.70;99.90;;;;;;5073774;28;20399;-75
2023/09/04 03:37:23;;;;;;;13.80;8.40;;;13.80;99.90;;;;;;5074074;28;20379;-74
2023/09/04 03:39:49;;;;;;;10.15;7.80;;;13.80;99.80;;;;;;5073892;28;20403;-74
2023/09/04 03:42:14;;;;;;;11.07;8.33;;;13.70;99.90;;;;;;5073452;28;20375;-74
2023/09/04 03:44:40;;;;;;;11.20;8.80;;;13.60;99.90;;;;;;5073953;28;20504;-73
2023/09/04 03:47:05;;;;;;;11.03;9.00;;;13.40;99.90;;;;;;5055939;28;20467;-74
2023/09/04 03:49:31;;;;;;;14.75;9.38;;;13.30;99.90;;;;;;5073948;28;20387;-75
2023/09/04 03:51:56;;;;;;;11.23;9.33;;;13.50;99.90;;;;;;5073446;28;20381;-76
2023/09/04 03:54:22;;;;;;;11.60;8.80;;;13.30;99.90;;;;;;5073628;28;20407;-74
2023/09/04 03:56:48;;;;;;;13.52;10.02;;;13.10;99.90;;;;;;5073910;28;20883;-74
2023/09/04 03:59:14;;;;;;;11.70;9.60;;;13.10;99.90;;;;;;5073244;28;20784;-74
2023/09/04 04:01:40;;;;;;;14.35;9.00;;;13.00;99.90;;;;;;5073009;28;20392;-75
2023/09/04 04:04:08;;;;;;;12.55;10.00;;;13.00;99.90;;;;;;5073446;28;20467;-74
2023/09/04 04:06:34;;;;;;;13.38;9.40;;;13.10;99.90;;;;;;5073703;28;20448;-76
2023/09/04 04:08:59;;;;;;;10.10;8.60;;;13.00;99.90;;;;;;5073991;28;21098;-75
2023/09/04 04:11:27;;;;;;;12.48;9.50;;;13.10;99.90;;;;;;5073285;28;20475;-74
2023/09/04 04:13:52;;;;;;;13.70;9.68;;;13.10;99.90;;;;;;5073347;28;20383;-75
2023/09/04 04:16:18;;;;;;;12.17;9.57;;;13.00;99.90;;;;;;5073537;28;20407;-74
2023/09/04 04:18:43;;;;;;;13.68;9.80;;;12.90;99.90;;;;;;5073238;28;20407;-74
2023/09/04 04:21:09;;;;;;;14.90;9.68;;;12.90;99.90;;;;;;5073096;28;20380;-74
2023/09/04 04:23:34;;;;;;;14.67;10.63;;;13.10;99.90;;;;;;5073176;28;20491;-76
2023/09/04 04:26:00;;;;;;;13.23;9.80;;;12.90;99.90;;;;;;5073345;28;20386;-75
2023/09/04 04:28:26;;;;;;;16.97;9.97;;;12.80;99.90;;;;;;5072904;28;20390;-73
2023/09/04 04:30:51;;;;;;;12.38;9.50;;;12.80;99.90;;;;;;5072837;28;20380;-74
2023/09/04 04:33:17;;;;;;;13.90;10.10;;;12.80;99.90;;;;;;5072905;28;20379;-74
2023/09/04 04:35:43;;;;;;;19.17;9.57;;;12.70;99.90;;;;;;5071931;28;20388;-73
2023/09/04 04:38:09;;;;;;;14.73;10.20;;;12.80;99.90;;;;;;5073016;28;20403;-75
2023/09/04 04:40:38;;;;;;;11.17;9.40;;;12.70;99.90;;;;;;5075477;28;20741;-74
2023/09/04 04:43:04;;;;;;;13.57;9.82;;;12.80;99.90;;;;;;5073918;28;20384;-75
2023/09/04 04:45:30;;;;;;;11.80;9.35;;;12.90;99.90;;;;;;5074010;28;20376;-74
2023/09/04 04:47:55;;;;;;;12.97;10.27;;;13.10;99.90;;;;;;5074602;28;20879;-75
2023/09/04 04:50:21;;;;;;;13.73;9.70;;;13.10;99.90;;;;;;5073286;28;20492;-75
2023/09/04 04:52:47;;;;;;;15.80;9.80;;;13.10;99.90;;;;;;5073106;28;20386;-77
2023/09/04 04:55:12;;;;;;;15.20;10.15;;;13.00;99.90;;;;;;5073084;28;20384;-74
2023/09/04 04:57:38;;;;;;;14.50;10.03;;;12.90;99.90;;;;;;5072784;28;20376;-74
2023/09/04 05:00:07;;;;;;;12.47;9.90;;;12.80;99.90;;;;;;5071856;28;20498;-74
2023/09/04 05:02:36;;;;;;;12.90;9.30;;;12.80;99.90;;;;;;5072045;28;20434;-74
2023/09/04 05:05:01;;;;;;;14.25;9.57;;;12.70;99.90;;;;;;5072057;28;20509;-74
2023/09/04 05:07:29;;;;;;;13.80;10.00;;;12.70;99.90;;;;;;5071906;28;20836;-75
2023/09/04 05:09:56;;;;;;;12.48;9.90;;;12.70;99.90;;;;;;5073283;28;20384;-74
2023/09/04 05:12:22;;;;;;;15.15;9.65;;;12.70;99.90;;;;;;5054018;28;20388;-75
2023/09/04 05:14:48;;;;;;;18.17;9.45;;;12.70;99.90;;;;;;5071889;28;20376;-74
2023/09/04 05:17:13;;;;;;;13.90;9.60;;;12.80;99.90;;;;;;5071577;28;20828;-73
2023/09/04 05:19:39;;;;;;;13.13;9.95;;;12.90;99.90;;;;;;5071719;28;20427;-75
2023/09/04 05:22:04;;;;;;;12.40;8.83;;;12.90;99.90;;;;;;5071583;28;20400;-74
2023/09/04 05:24:30;;;;;;;10.67;9.30;;;12.80;99.90;;;;;;5071491;28;20383;-75
2023/09/04 05:26:56;;;;;;;10.53;9.30;;;12.90;99.90;;;;;;5071734;28;20525;-76
2023/09/04 05:29:21;;;;;;;17.10;9.53;;;12.90;99.90;;;;;;5072321;28;20441;-73
2023/09/04 05:31:53;;;;;;;14.77;9.52;;;13.00;99.90;;;;;;5071806;28;20383;-73
2023/09/04 05:34:19;;;;;;;12.30;9.70;;;13.00;99.90;;;;;;5073219;28;20917;-76
2023/09/04 05:36:46;;;;;;;14.88;9.65;;;13.00;99.90;;;;;;5074404;28;20484;-77
2023/09/04 05:39:11;;;;;;;15.98;10.35;;;13.30;99.90;;;;;;5074237;28;20471;-75
2023/09/04 05:41:37;;;;;;;11.50;9.27;;;13.30;99.90;;;;;;5073257;28;20922;-76
2023/09/04 05:44:03;;;;;;;12.95;9.70;;;13.40;99.90;;;;;;5072645;28;20384;-75
2023/09/04 05:46:30;;;;;;;11.55;9.07;;;13.40;99.90;;;;;;5071323;28;20757;-74
2023/09/04 05:48:56;;;;;;;13.00;8.73;;;13.70;99.90;;;;;;5071124;28;20407;-76
2023/09/04 05:51:21;;;;;;;13.03;9.70;;;13.80;99.90;;;;;;5071026;28;20869;-74
2023/09/04 05:53:47;;;;;;;12.97;8.90;;;13.90;99.90;;;;;;5070979;28;20514;-73
2023/09/04 05:56:14;;;;;;;11.18;8.35;;;14.10;99.90;;;;;;5071116;28;20399;-75
2023/09/04 05:58:43;;;;;;;14.03;8.30;;;14.10;99.90;;;;;;5070882;28;20422;-76
2023/09/04 06:01:08;;;;;;;10.82;7.53;;;14.30;99.90;;;;;;5071121;28;20486;-76
2023/09/04 06:03:34;;;;;;;13.43;8.10;;;14.50;99.90;;;;;;5070966;28;20868;-74
2023/09/04 06:05:59;;;;;;;9.93;7.57;;;14.70;99.90;;;;;;5070482;28;20386;-73
2023/09/04 06:08:25;;;;;;;14.90;10.43;;;14.80;97.90;;;;;;5070589;28;20384;-75
2023/09/04 06:10:50;;;;;;;35.30;23.27;;;14.80;97.80;;;;;;5070877;28;20779;-72
2023/09/04 06:13:16;;;;;;;66.38;40.83;;;14.90;97.30;;;;;;5070573;28;20462;-74
2023/09/04 06:15:43;;;;;;;56.47;37.35;;;15.10;92.30;;;;;;5070429;28;20380;-74
2023/09/04 06:18:08;;;;;;;39.42;26.05;;;15.20;91.30;;;;;;5070609;28;20482;-75
2023/09/04 06:20:34;;;;;;;25.98;17.42;;;15.40;89.70;;;;;;5070834;28;20408;-74
2023/09/04 06:22:59;;;;;;;10.10;6.53;;;15.50;87.60;;;;;;5073785;28;20384;-75
2023/09/04 06:25:25;;;;;;;7.67;5.97;;;15.50;85.80;;;;;;5070823;28;20730;-74
2023/09/04 06:27:50;;;;;;;9.47;5.90;;;15.60;85.50;;;;;;5052655;28;20513;-75
2023/09/04 06:30:16;;;;;;;7.53;5.60;;;15.70;82.90;;;;;;5070884;28;20387;-72
2023/09/04 06:32:41;;;;;;;7.50;6.20;;;15.70;80.30;;;;;;5070382;28;20443;-73
2023/09/04 06:35:08;;;;;;;11.27;5.90;;;15.80;80.50;;;;;;5052945;28;20522;-74
2023/09/04 06:37:33;;;;;;;5.90;5.30;;;16.00;77.40;;;;;;5070478;28;20396;-73
2023/09/04 06:39:59;;;;;;;9.63;6.00;;;16.10;75.80;;;;;;5070356;28;20399;-73
2023/09/04 06:42:24;;;;;;;7.00;5.45;;;16.20;74.20;;;;;;5052499;28;20903;-74
2023/09/04 06:44:50;;;;;;;13.50;5.40;;;16.30;74.30;;;;;;5070715;28;20402;-73
2023/09/04 06:47:15;;;;;;;8.37;5.03;;;16.40;71.60;;;;;;5070281;28;20586;-74
2023/09/04 06:49:41;;;;;;;8.05;5.35;;;16.50;69.30;;;;;;5070785;28;20379;-74
2023/09/04 06:52:06;;;;;;;7.53;5.50;;;16.70;64.90;;;;;;5052493;28;20384;-75
2023/09/04 06:54:32;;;;;;;7.13;4.70;;;16.90;63.90;;;;;;5070969;28;20411;-74
2023/09/04 06:56:58;;;;;;;6.35;4.28;;;17.00;62.00;;;;;;5072908;28;20378;-73
2023/09/04 06:59:23;;;;;;;7.35;4.80;;;17.10;59.60;;;;;;5074724;28;20400;-74
2023/09/04 07:01:49;;;;;;;6.82;4.60;;;17.30;58.90;;;;;;5074587;28;20400;-74
2023/09/04 07:04:14;;;;;;;8.40;4.90;;;17.40;56.90;;;;;;5074498;28;20904;-74
2023/09/04 07:06:40;;;;;;;8.53;5.40;;;17.50;55.80;;;;;;5074073;28;20380;-73
2023/09/04 07:09:06;;;;;;;5.47;4.80;;;17.70;55.00;;;;;;5074836;28;20380;-74
2023/09/04 07:11:31;;;;;;;6.20;3.80;;;17.80;53.80;;;;;;5074272;28;20391;-73
2023/09/04 07:13:57;;;;;;;5.88;4.20;;;17.90;51.70;;;;;;5074176;28;20473;-74
2023/09/04 07:16:22;;;;;;;5.10;4.00;;;18.10;50.50;;;;;;5074063;28;20390;-74
2023/09/04 07:18:48;;;;;;;6.03;3.70;;;18.20;48.80;;;;;;5073872;28;20405;-73
2023/09/04 07:21:13;;;;;;;4.80;3.92;;;18.30;47.20;;;;;;5074348;28;20415;-74
2023/09/04 07:23:39;;;;;;;6.13;3.70;;;18.40;47.80;;;;;;5074088;28;20414;-74
2023/09/04 07:26:04;;;;;;;6.50;3.80;;;18.50;48.30;;;;;;5074248;28;20387;-74
2023/09/04 07:28:30;;;;;;;4.80;3.60;;;18.60;46.70;;;;;;5074168;28;20386;-74
2023/09/04 07:31:17;;;;;;;4.43;3.60;;;18.80;43.70;;;;;;5074091;28;20386;-75
2023/09/04 07:33:43;;;;;;;7.60;3.80;;;18.80;43.70;;;;;;5073948;28;20891;-74
2023/09/04 07:36:08;;;;;;;6.13;3.30;;;18.90;42.30;;;;;;5074058;28;20371;-73
2023/09/04 07:38:34;;;;;;;4.20;2.80;;;19.10;41.60;;;;;;5073874;28;20507;-74
2023/09/04 07:41:04;;;;;;;6.40;3.33;;;19.20;40.30;;;;;;5072989;28;20907;-74
2023/09/04 07:43:32;;;;;;;3.33;2.80;;;19.30;40.70;;;;;;5073751;28;20430;-73
2023/09/04 07:46:00;;;;;;;4.60;3.40;;;19.40;40.70;;;;;;5073728;28;20576;-72
2023/09/04 07:48:26;;;;;;;4.70;3.20;;;19.50;39.00;;;;;;5072910;28;20461;-74
2023/09/04 07:50:54;;;;;;;5.50;3.40;;;19.60;37.20;;;;;;5073167;28;20384;-73
2023/09/04 07:53:21;;;;;;;5.15;3.42;;;19.60;36.80;;;;;;5073544;28;20841;-74
2023/09/04 07:55:47;;;;;;;4.57;2.83;;;19.70;35.80;;;;;;5073708;28;20379;-72
2023/09/04 07:58:13;;;;;;;4.60;2.80;;;19.80;35.90;;;;;;5073339;28;20439;-74
2023/09/04 08:00:49;;;;;;;5.07;2.97;;;19.80;36.70;;;;;;5073382;28;20387;-73
2023/09/04 08:03:16;;;;;;;4.20;2.90;;;19.90;36.50;;;;;;5072998;28;20399;-74
2023/09/04 08:05:42;;;;;;;6.07;3.70;;;20.00;36.40;;;;;;5072966;28;20402;-74
2023/09/04 08:08:10;;;;;;;6.20;3.42;;;20.10;35.80;;;;;;5073222;28;20753;-74
2023/09/04 08:10:40;;;;;;;4.53;3.13;;;20.40;35.00;;;;;;5073031;28;20372;-74
2023/09/04 08:13:11;;;;;;;4.65;3.03;;;20.50;35.50;;;;;;5072873;28;20429;-74
2023/09/04 08:15:36;;;;;;;5.75;3.90;;;20.50;35.10;;;;;;5073007;28;20384;-75
2023/09/04 08:18:02;;;;;;;6.25;3.33;;;20.40;35.20;;;;;;5072761;28;20383;-74
2023/09/04 08:20:28;;;;;;;5.38;3.00;;;20.50;34.00;;;;;;5072706;28;20380;-73
2023/09/04 08:22:53;;;;;;;5.80;2.80;;;20.50;33.60;;;;;;5072630;28;20383;-74
2023/09/04 08:25:19;;;;;;;3.28;2.80;;;20.50;33.20;;;;;;5072818;28;20383;-75
2023/09/04 08:27:44;;;;;;;7.80;3.50;;;20.60;32.90;;;;;;5073385;28;20421;-74
2023/09/04 08:30:10;;;;;;;7.00;4.23;;;20.60;32.90;;;;;;5073783;28;20891;-74
2023/09/04 08:32:36;;;;;;;4.80;3.30;;;20.80;33.60;;;;;;5072768;28;20733;-75
2023/09/04 08:35:02;;;;;;;8.65;3.10;;;20.80;33.30;;;;;;5074606;28;20481;-74
2023/09/04 08:37:28;;;;;;;3.55;3.10;;;21.00;32.70;;;;;;5074971;28;20394;-74
2023/09/04 08:39:53;;;;;;;8.80;3.27;;;21.00;31.50;;;;;;5074663;28;20502;-74
2023/09/04 08:42:19;;;;;;;4.75;2.97;;;21.00;32.10;;;;;;5054417;28;20372;-74
2023/09/04 08:44:46;;;;;;;5.43;2.90;;;21.10;30.70;;;;;;5072933;28;20387;-74
2023/09/04 08:47:15;;;;;;;5.30;2.85;;;21.00;30.40;;;;;;5072514;28;20926;-75
2023/09/04 08:49:41;;;;;;;8.15;3.67;;;21.20;30.80;;;;;;5072558;28;20395;-75
2023/09/04 08:52:08;;;;;;;6.05;3.20;;;21.20;30.80;;;;;;5072278;28;20921;-74
2023/09/04 08:54:33;;;;;;;6.70;3.53;;;21.20;30.80;;;;;;5072075;28;20466;-74
2023/09/04 08:57:00;;;;;;;5.00;3.25;;;21.30;31.00;;;;;;5072296;28;20442;-74
2023/09/04 08:59:25;;;;;;;5.30;3.00;;;21.40;30.20;;;;;;5072186;28;20403;-74
2023/09/04 09:01:52;;;;;;;4.03;2.83;;;21.30;30.90;;;;;;5072793;28;20399;-74
2023/09/04 09:04:20;;;;;;;3.88;2.90;;;21.40;31.30;;;;;;5072226;28;20748;-75
2023/09/04 09:06:47;;;;;;;4.88;3.30;;;21.50;30.50;;;;;;5071901;28;20387;-74
2023/09/04 09:09:15;;;;;;;5.07;3.50;;;21.70;30.10;;;;;;5072070;28;20399;-75
2023/09/04 09:11:42;;;;;;;3.67;3.00;;;21.70;30.10;;;;;;5071662;28;20415;-75
2023/09/04 09:14:11;;;;;;;5.30;3.10;;;21.70;29.30;;;;;;5071826;28;20395;-74
2023/09/04 09:16:37;;;;;;;4.55;3.30;;;21.80;29.20;;;;;;5071841;28;20376;-75
2023/09/04 09:19:03;;;;;;;6.03;3.20;;;21.90;28.60;;;;;;5071796;28;20958;-75
2023/09/04 09:21:30;;;;;;;5.90;3.63;;;21.90;29.00;;;;;;5070940;28;20775;-75
2023/09/04 09:24:17;;;;;;;3.17;2.80;;;22.00;28.10;;;;;;5071788;28;20384;-76
2023/09/04 09:26:48;;;;;;;4.38;3.10;;;22.00;28.20;;;;;;5071840;28;20375;-76
2023/09/04 09:29:14;;;;;;;5.43;3.10;;;22.00;28.90;;;;;;5074059;28;20429;-76
2023/09/04 09:31:42;;;;;;;5.05;3.15;;;22.00;29.10;;;;;;5073160;28;20391;-76
2023/09/04 09:34:09;;;;;;;3.78;3.28;;;22.10;28.00;;;;;;5072927;28;20391;-76
2023/09/04 09:36:34;;;;;;;5.00;3.13;;;22.20;27.90;;;;;;5072839;28;20414;-75
2023/09/04 09:39:00;;;;;;;7.07;3.10;;;22.20;26.50;;;;;;5073949;28;20433;-75
2023/09/04 09:41:28;;;;;;;6.80;3.30;;;22.30;26.70;;;;;;5071121;28;20456;-76
2023/09/04 09:43:53;;;;;;;4.10;3.50;;;22.40;26.00;;;;;;5071653;28;20424;-76
2023/09/04 09:46:20;;;;;;;4.75;3.20;;;22.40;26.00;;;;;;5071040;28;20382;-75
2023/09/04 09:48:46;;;;;;;5.82;2.80;;;22.50;24.90;;;;;;5071402;28;20387;-75
2023/09/04 09:51:13;;;;;;;4.20;3.10;;;22.50;25.40;;;;;;5072994;28;20380;-75
2023/09/04 09:53:45;;;;;;;5.10;3.30;;;22.50;25.70;;;;;;5074279;28;20434;-75
2023/09/04 09:56:12;;;;;;;4.85;3.45;;;22.60;24.90;;;;;;5071090;28;20380;-75
2023/09/04 09:58:39;;;;;;;3.65;2.90;;;22.80;25.20;;;;;;5070614;28;20407;-76
2023/09/04 10:01:06;;;;;;;3.83;3.20;;;22.90;24.10;;;;;;5070464;28;20392;-73
2023/09/04 10:03:33;;;;;;;6.20;3.00;;;22.90;24.40;;;;;;5070919;28;20376;-74
2023/09/04 10:06:04;;;;;;;5.03;3.50;;;23.00;25.30;;;;;;5073385;28;20383;-74
2023/09/04 10:08:33;;;;;;;5.10;3.10;;;23.10;24.80;;;;;;5070390;28;20402;-75
2023/09/04 10:11:02;;;;;;;3.45;2.92;;;23.10;23.60;;;;;;5070365;28;20387;-75
2023/09/04 10:13:34;;;;;;;4.50;3.20;;;23.10;23.00;;;;;;5070986;28;20437;-75
2023/09/04 10:16:05;;;;;;;4.70;3.28;;;23.20;23.10;;;;;;5070817;28;20375;-74
2023/09/04 10:18:33;;;;;;;5.85;3.15;;;23.30;23.60;;;;;;5070755;28;20419;-76
2023/09/04 10:20:59;;;;;;;5.77;3.47;;;23.40;23.10;;;;;;5070756;28;20388;-75
2023/09/04 10:23:31;;;;;;;7.60;3.45;;;23.30;23.30;;;;;;5072159;28;20388;-75
2023/09/04 10:26:10;;;;;;;9.52;5.10;;;23.40;22.80;;;;;;5071354;28;20899;-76
2023/09/04 10:28:39;;;;;;;15.43;7.85;;;23.50;23.00;;;;;;5071273;28;20391;-74
2023/09/04 10:31:05;;;;;;;5.82;3.30;;;23.50;23.10;;;;;;5072202;28;20387;-74
2023/09/04 10:33:31;;;;;;;12.68;5.60;;;23.60;22.80;;;;;;5071563;28;20443;-74
2023/09/04 10:35:58;;;;;;;3.70;3.20;;;23.70;22.80;;;;;;5072282;28;20468;-74
2023/09/04 10:38:25;;;;;;;5.10;3.60;;;23.70;23.10;;;;;;5071468;28;20400;-74
2023/09/04 10:40:51;;;;;;;14.05;6.40;;;23.80;21.90;;;;;;5072168;28;20466;-75
2023/09/04 10:43:17;;;;;;;5.15;4.15;;;23.90;20.80;;;;;;5072242;28;20455;-76
2023/09/04 10:46:07;;;;;;;5.97;4.07;;;24.00;20.10;;;;;;5072268;28;20463;-75
2023/09/04 10:48:44;;;;;;;9.05;4.22;;;24.00;20.40;;;;;;5073071;28;20477;-76
2023/09/04 10:51:30;;;;;;;4.78;3.20;;;24.30;19.90;;;;;;5072486;28;20383;-76
2023/09/04 10:53:57;;;;;;;4.13;2.80;;;24.30;19.10;;;;;;5073720;28;20813;-76
2023/09/04 10:56:23;;;;;;;5.68;3.10;;;24.30;19.10;;;;;;5073815;28;20384;-75
2023/09/04 10:59:05;;;;;;;5.50;3.50;;;24.40;19.00;;;;;;5074014;28;20461;-74
2023/09/04 11:01:38;;;;;;;5.00;3.10;;;24.50;18.40;;;;;;5073776;28;20388;-74
2023/09/04 11:04:06;;;;;;;5.37;2.90;;;24.50;18.10;;;;;;5073208;28;20438;-75
2023/09/04 11:06:34;;;;;;;7.53;3.13;;;24.50;18.60;;;;;;5073293;28;20379;-75
2023/09/04 11:09:02;;;;;;;6.05;2.85;;;24.70;18.40;;;;;;5072374;28;20375;-75
2023/09/04 11:11:28;;;;;;;7.43;3.00;;;24.80;17.70;;;;;;5072081;28;20482;-76
2023/09/04 11:14:06;;;;;;;5.43;2.95;;;24.80;16.70;;;;;;5072540;28;20417;-76
2023/09/04 11:16:42;;;;;;;4.97;2.92;;;24.90;16.90;;;;;;5074365;28;20375;-77
2023/09/04 11:19:13;;;;;;;3.92;2.90;;;24.90;16.30;;;;;;5075904;28;20403;-75
2023/09/04 11:21:43;;;;;;;3.25;2.80;;;24.90;16.20;;;;;;5073613;28;20479;-73
2023/09/04 11:24:09;;;;;;;5.40;2.80;;;24.90;16.20;;;;;;5074765;28;20895;-75
2023/09/04 11:26:36;;;;;;;3.80;2.70;;;25.10;16.40;;;;;;5074852;28;20398;-73
2023/09/04 11:29:03;;;;;;;3.22;2.78;;;25.10;16.20;;;;;;5074245;28;20371;-75
2023/09/04 11:31:31;;;;;;;3.17;2.60;;;25.20;16.90;;;;;;5075315;28;20489;-75
2023/09/04 11:33:57;;;;;;;3.80;2.55;;;25.20;16.00;;;;;;5074917;28;20525;-75
2023/09/04 11:36:24;;;;;;;5.93;3.92;;;25.20;16.10;;;;;;5075411;28;20375;-75
2023/09/04 11:39:04;;;;;;;4.05;3.00;;;25.20;15.90;;;;;;5077373;28;20410;-73
2023/09/04 11:41:30;;;;;;;3.13;2.70;;;25.30;16.20;;;;;;5076486;28;20520;-75
2023/09/04 11:43:56;;;;;;;4.10;2.50;;;25.40;16.30;;;;;;5077075;28;20407;-75
2023/09/04 11:46:21;;;;;;;3.73;2.60;;;25.60;16.40;;;;;;5079340;28;20517;-74
2023/09/04 11:48:48;;;;;;;4.47;2.80;;;25.60;16.60;;;;;;5078683;28;20435;-76
2023/09/04 11:51:13;;;;;;;4.10;2.90;;;25.70;16.10;;;;;;5080203;28;20810;-75
2023/09/04 11:53:40;;;;;;;2.80;2.50;;;25.70;16.30;;;;;;5078608;28;20392;-76
2023/09/04 11:56:05;;;;;;;3.47;2.90;;;25.80;16.00;;;;;;5079104;28;20439;-75
2023/09/04 11:58:33;;;;;;;3.95;3.03;;;25.90;15.30;;;;;;5077230;28;20403;-76
2023/09/04 12:00:59;;;;;;;4.28;2.65;;;26.00;15.90;;;;;;5077234;28;20420;-76
2023/09/04 12:03:25;;;;;;;3.88;3.10;;;26.00;16.00;;;;;;5075115;28;20428;-75
2023/09/04 12:05:51;;;;;;;5.07;2.72;;;26.10;15.70;;;;;;5075679;28;20854;-74
2023/09/04 12:08:18;;;;;;;3.40;2.50;;;26.10;14.80;;;;;;5076003;28;20383;-75
2023/09/04 12:10:43;;;;;;;3.93;2.70;;;26.20;14.70;;;;;;5077667;28;20783;-75
2023/09/04 12:13:12;;;;;;;6.47;3.10;;;26.30;15.10;;;;;;5077287;28;20419;-74
2023/09/04 12:15:38;;;;;;;4.03;2.60;;;26.30;14.50;;;;;;5074880;28;20372;-76
2023/09/04 12:18:06;;;;;;;4.82;3.00;;;26.40;14.70;;;;;;5058505;28;20426;-75
2023/09/04 12:20:42;;;;;;;4.53;2.83;;;26.40;14.20;;;;;;5076063;28;20475;-76
2023/09/04 12:23:08;;;;;;;7.35;3.13;;;26.50;14.40;;;;;;5057999;28;20383;-76
2023/09/04 12:25:38;;;;;;;5.80;2.88;;;26.50;14.30;;;;;;5074606;28;20418;-75
2023/09/04 12:28:09;;;;;;;6.40;4.10;;;26.50;14.00;;;;;;5076091;28;20443;-74
2023/09/04 12:30:44;;;;;;;3.17;2.80;;;26.60;13.80;;;;;;5075390;28;20439;-73
2023/09/04 12:33:16;;;;;;;3.92;2.92;;;26.60;13.20;;;;;;5073472;28;20786;-75
2023/09/04 12:35:42;;;;;;;2.88;2.67;;;26.60;14.20;;;;;;5073322;28;20404;-75
2023/09/04 12:38:08;;;;;;;4.50;2.80;;;26.80;14.40;;;;;;5073167;28;20383;-75
2023/09/04 12:40:35;;;;;;;4.23;2.80;;;26.80;14.30;;;;;;5073426;28;20717;-73
2023/09/04 12:43:01;;;;;;;2.95;2.65;;;26.80;13.90;;;;;;5075928;28;20395;-76